Last Month

Pierce College

Hourly Data | America/Los_Angeles
as of 1/26/22 12:56 AM PST
Date & Time Temp Max (°F) Temp Min (°F) RH (%) Dew Pt (°F) Latest Rain (In) Soil Temp (°F) Soil Moist (%) Wind Spd (mph) Wind Dir (°) Wind Gust (mph) Leaf Wet Raw (mV) Net Radiation (W/m²) Evap Pan Max Wind (mph) Evap Pan H2O Max Temp (°F) Evap Pan Level (In)
12/31/21 - 2300 43.2 40.8 75 34.9 0.00 53.0 49.7 0.9 SSE | 168 2.7 276 -67 1.7 61.0 8.7
12/31/21 - 2200 43.5 42.4 79 37.1 0.00 53.5 49.8 1.2 SSE | 153 4.3 279 -69 2.1 64.2 8.7
12/31/21 - 2100 44.6 43.0 82 38.7 0.00 52.1 49.9 0.8 SSE | 156 2.4 282 -52 1.9 66.4 8.7
12/31/21 - 2000 46.8 43.6 78 38.5 0.00 53.0 50.0 0.6 SSE | 163 2.5 285 -65 2.1 68.2 8.7
12/31/21 - 1900 49.8 46.6 68 38.4 0.00 53.0 50.0 0.4 ESE | 119 2.9 274 -61 1.4 70.3 8.7
12/31/21 - 1800 52.4 48.8 71 41.3 0.00 53.0 50.1 0.6 SSE | 156 2.8 273 -66 1.6 72.1 8.7
12/31/21 - 1700 55.7 52.2 69 44.1 0.00 52.2 50.1 1.1 E | 86 4.4 273 -47 1.7 74.5 8.7
12/31/21 - 1600 56.9 55.4 75 48.4 0.00 52.9 50.2 0.6 E | 79 3.6 273 -23 2.2 75.1 8.7
12/31/21 - 1500 58.5 56.9 70 48.1 0.00 51.8 50.2 0.9 E | 81 4.5 273 -11 2.2 76.1 8.7
12/31/21 - 1400 61.2 58.1 66 47.7 0.00 52.2 50.3 1.3 ESE | 122 4.8 272 56 1.9 76.1 8.7
12/31/21 - 1300 62.0 59.4 62 47.6 0.00 52.0 50.3 1.6 ENE | 72 4.9 270 300 4.3 74.8 8.7
12/31/21 - 1200 61.5 59.4 59 46.2 0.00 51.4 50.4 1.3 ENE | 69 3.7 270 359 3.6 67.4 8.8
12/31/21 - 1100 59.8 56.9 64 46.3 0.00 50.8 50.5 0.9 NE | 51 3.6 270 306 1.7 62.5 8.8
12/31/21 - 1000 57.6 52.6 74 47.2 0.00 51.6 50.7 0.9 W | 277 3.6 271 211 3.1 60.3 8.8
12/31/21 - 0900 52.7 48.2 90 47.9 0.00 51.2 51.0 1.7 SW | 224 5.5 273 128 4.2 58.4 8.8
12/31/21 - 0800 48.4 45.9 95 45.7 0.01 52.4 51.2 2.6 SSW | 211 5.9 364 13 4.2 57.5 8.8
12/31/21 - 0700 46.3 40.3 96 42.6 0.00 52.4 51.4 1.4 SW | 230 5.1 423 -5 3.8 58.2 8.8
12/31/21 - 0600 41.6 40.3 96 39.8 0.00 52.4 51.7 0.1 S | 177 1.2 438 -6 0.7 59.2 8.8
12/31/21 - 0500 42.9 40.8 95 40.6 0.00 52.5 52.0 0.2 S | 180 1.3 423 -7 1.5 60.6 8.8
12/31/21 - 0400 43.8 41.9 95 41.6 0.00 53.0 52.3 0.1 SW | 235 2.3 435 -8 1.9 60.3 8.8
12/31/21 - 0300 45.2 43.6 95 43.3 0.00 52.4 52.7 0.4 S | 183 2.4 432 -5 1.9 60.7 8.8
12/31/21 - 0200 46.5 44.7 95 44.0 0.00 52.6 53.2 0.2 SW | 217 1.3 420 -7 0.0 61.6 8.8
12/31/21 - 0100 47.9 45.7 95 45.3 0.00 52.1 53.6 0.5 SE | 144 2.8 406 -11 0.9 62.5 8.8
12/31/21 - 0000 50.3 47.9 95 47.9 0.00 51.6 54.2 0.4 S | 178 2.1 414 -9 1.2 64.3 8.8
12/30/21 - 2300 50.5 49.7 95 48.8 0.00 52.3 54.6 0.6 SW | 218 4.1 400 -3 2.8 65.1 8.8
12/30/21 - 2200 50.6 49.7 95 48.7 0.00 52.5 54.9 0.3 SW | 218 2.1 398 -4 1.4 65.4 8.8
12/30/21 - 2100 51.0 50.2 95 49.1 0.00 52.2 55.2 0.2 ENE | 71 2.0 436 -1 1.1 65.9 8.8
12/30/21 - 2000 51.9 50.9 95 50.1 0.02 51.6 55.4 1.2 NE | 38 3.6 456 -0 1.7 63.5 8.8
12/30/21 - 1900 52.0 51.4 95 50.3 0.02 52.2 55.7 0.6 NE | 38 2.6 513 -0 0.0 64.3 8.8
12/30/21 - 1800 51.6 50.1 95 49.2 0.02 52.3 55.9 0.8 NE | 52 4.2 424 -1 2.8 65.5 8.8
12/30/21 - 1700 51.4 50.2 95 49.3 0.05 51.5 56.6 0.9 NNE | 33 3.1 532 4 0.9 66.2 8.7
12/30/21 - 1600 51.9 50.3 95 49.4 0.17 52.7 56.9 1.3 NE | 36 3.5 487 21 1.1 66.5 8.7
12/30/21 - 1500 50.8 49.8 95 48.8 0.10 52.1 56.8 0.5 NNE | 13 4.5 472 25 1.7 66.5 8.6
12/30/21 - 1400 50.1 49.4 94 48.3 0.21 51.8 56.9 1.2 NNE | 24 3.5 522 55 1.7 65.4 8.5
12/30/21 - 1300 49.6 49.1 94 47.9 0.20 51.0 56.9 0.7 NW | 316 3.9 503 31 3.5 65.2 8.3
12/30/21 - 1200 49.5 48.8 95 47.7 0.19 51.6 56.8 1.5 NNE | 26 5.1 524 51 2.1 65.1 8.1
12/30/21 - 1100 50.0 48.5 94 47.5 0.29 52.0 57.0 1.7 NNE | 28 5.9 541 38 2.5 62.5 7.9
12/30/21 - 1000 49.8 48.5 94 47.5 0.14 51.1 56.2 1.6 NE | 41 4.3 526 33 1.6 61.9 7.7
12/30/21 - 0900 49.5 48.5 94 47.6 0.22 52.3 56.4 1.7 NE | 40 4.4 532 12 3.3 62.5 7.5
12/30/21 - 0800 49.6 48.9 94 47.7 0.09 51.8 56.2 1.6 NE | 50 6.7 486 9 2.0 62.8 7.3
12/30/21 - 0700 49.3 48.8 94 47.4 0.34 52.2 57.3 0.8 NE | 41 2.8 545 -0 1.5 62.9 7.3
12/30/21 - 0600 49.2 48.7 94 47.3 0.25 52.0 57.1 1.3 ENE | 65 4.7 549 -1 2.1 63.0 7.0
12/30/21 - 0500 49.1 48.7 94 47.2 0.28 52.3 57.3 2.2 ENE | 64 6.4 529 -1 4.2 63.0 6.7
12/30/21 - 0400 49.6 48.9 94 47.6 0.25 51.5 57.4 1.7 ENE | 68 5.8 547 -1 3.4 62.5 6.5
12/30/21 - 0300 50.0 49.3 94 47.9 0.20 51.8 57.3 2.8 ENE | 73 8.9 557 -1 4.6 61.8 6.3
12/30/21 - 0200 49.9 49.3 94 47.9 0.23 52.0 57.5 1.5 NE | 49 5.9 537 -0 3.8 61.0 6.1
12/30/21 - 0100 50.1 49.6 94 48.1 0.31 51.8 57.8 0.9 NE | 54 3.1 569 -0 1.3 60.3 5.9
12/30/21 - 0000 50.6 49.8 93 48.4 0.13 52.0 56.3 0.8 NE | 50 3.4 524 -0 0.7 60.9 5.6
12/29/21 - 2300 50.6 49.5 94 48.4 0.11 52.3 56.3 1.2 E | 99 8.0 537 -1 6.0 61.0 5.5
12/29/21 - 2200 50.0 49.0 94 47.8 0.08 51.9 55.4 1.2 ENE | 67 4.1 489 -0 2.8 61.0 5.4
12/29/21 - 2100 49.2 48.4 94 47.1 0.09 52.6 55.5 1.0 ENE | 63 3.8 433 -1 1.8 59.5 5.3
12/29/21 - 2000 48.6 47.8 93 46.3 0.14 52.9 53.2 1.0 NE | 56 3.3 499 -1 1.0 60.1 5.2
12/29/21 - 1900 48.1 47.8 93 45.9 0.09 52.6 51.0 1.5 ENE | 58 4.1 551 -1 3.0 60.6 5.1
12/29/21 - 1800 48.1 47.4 92 45.4 0.05 52.5 50.2 1.1 NE | 53 3.8 546 -2 2.8 60.6 5.0
12/29/21 - 1700 48.1 47.3 90 45.0 0.03 51.7 49.8 2.5 E | 82 6.6 515 7 3.7 60.8 5.0
12/29/21 - 1600 49.0 47.9 90 45.9 0.02 52.4 49.6 2.2 E | 84 7.1 488 51 3.4 59.6 4.9
12/29/21 - 1500 48.6 47.8 90 45.5 0.05 52.2 49.5 0.9 ENE | 63 4.2 496 29 1.2 57.8 4.9
12/29/21 - 1400 48.3 47.3 89 44.8 0.01 51.5 49.2 1.9 E | 81 6.1 432 48 3.2 56.9 4.9
12/29/21 - 1300 47.5 46.9 88 43.8 0.04 51.9 49.2 1.8 E | 89 6.7 490 53 4.2 55.7 4.9
12/29/21 - 1200 47.6 47.0 87 43.6 0.01 52.1 49.1 2.5 E | 86 8.0 439 98 4.5 55.5 4.8
12/29/21 - 1100 47.4 46.8 84 42.6 0.02 52.4 49.1 2.3 ENE | 77 6.8 477 100 4.0 53.6 4.8
12/29/21 - 1000 47.2 45.5 82 41.1 0.00 52.2 49.0 1.2 NE | 51 3.4 472 72 0.9 52.0 4.8
12/29/21 - 0900 45.7 42.4 88 40.7 0.01 51.8 49.0 0.3 NNE | 14 2.0 282 60 0.9 50.8 4.8
12/29/21 - 0800 42.5 39.4 90 38.2 0.00 51.6 49.1 0.3 SSE | 155 1.5 313 21 1.1 49.4 4.8
12/29/21 - 0700 41.6 39.4 90 38.0 0.00 51.7 49.1 1.2 SSW | 198 4.0 339 -15 2.7 49.5 4.8
12/29/21 - 0600 41.5 40.3 91 38.5 0.00 51.8 49.1 1.0 SSE | 158 4.8 318 -8 2.6 49.2 4.8
12/29/21 - 0500 41.5 40.1 91 38.2 0.00 52.6 49.2 0.2 SSW | 202 1.8 326 -10 1.0 49.2 4.8
12/29/21 - 0400 41.8 40.7 92 39.1 0.00 52.3 49.2 0.2 SE | 136 1.7 312 -4 0.0 48.8 4.8
12/29/21 - 0300 41.0 39.3 92 38.0 0.00 52.2 49.3 0.1 ESE | 122 1.2 330 -3 0.0 49.7 4.8
12/29/21 - 0200 39.6 38.1 92 36.6 0.00 52.4 49.4 0.4 S | 177 1.8 354 -7 1.4 50.8 4.8
12/29/21 - 0100 39.1 38.1 91 36.3 0.00 52.7 49.5 0.5 S | 174 2.4 385 -17 1.5 51.8 4.8
12/29/21 - 0000 38.9 38.1 91 36.1 0.00 52.6 49.6 0.5 S | 170 3.5 384 -17 0.0 52.2 4.8
12/28/21 - 2300 39.6 37.9 89 35.6 0.00 52.8 49.6 0.5 S | 181 2.3 379 -27 1.4 53.4 4.8
12/28/21 - 2200 40.9 39.4 87 36.5 0.00 53.2 49.7 0.3 SSE | 162 1.8 348 -37 0.0 55.6 4.8
12/28/21 - 2100 42.9 40.7 84 37.0 0.00 52.6 49.8 0.3 SSE | 159 1.1 309 -55 0.8 60.0 4.8
12/28/21 - 2000 44.8 42.7 79 37.9 0.00 53.5 49.8 0.5 S | 169 1.5 282 -57 1.4 62.2 4.8
12/28/21 - 1900 46.8 44.6 76 38.2 0.00 53.5 49.8 0.4 SSE | 164 2.1 273 -49 1.5 65.0 4.8
12/28/21 - 1800 50.1 46.8 66 37.2 0.00 52.6 49.9 0.2 SSE | 168 2.3 272 -43 1.5 65.8 4.8
12/28/21 - 1700 51.1 50.0 56 35.7 0.00 53.3 49.8 1.2 S | 190 2.7 270 -17 1.7 66.8 4.8
12/28/21 - 1600 52.6 51.0 54 35.4 0.00 52.6 49.9 1.6 S | 176 4.5 270 40 3.3 69.1 4.8
12/28/21 - 1500 52.4 51.2 54 35.4 0.00 52.2 49.9 2.4 S | 184 5.8 270 84 4.1 69.1 4.8
12/28/21 - 1400 51.9 50.7 51 33.8 0.00 51.5 49.9 1.7 SE | 127 4.5 269 65 3.0 68.9 4.8
12/28/21 - 1300 55.1 51.1 53 35.7 0.00 51.4 49.8 2.0 SE | 131 7.5 269 222 5.1 67.5 4.8
12/28/21 - 1200 53.6 50.5 54 35.9 0.00 51.4 49.7 2.6 E | 85 6.9 269 286 3.9 61.7 4.8
12/28/21 - 1100 52.2 49.6 60 37.4 0.00 51.8 49.7 1.9 E | 86 5.3 269 356 3.5 55.4 4.8
12/28/21 - 1000 50.3 46.1 73 39.4 0.00 51.7 49.7 0.9 NE | 34 4.5 270 299 2.1 50.2 4.8
12/28/21 - 0900 46.6 38.8 92 41.1 0.00 51.8 49.8 0.5 SSE | 150 2.5 272 150 1.8 48.7 4.8
12/28/21 - 0800 38.8 36.4 93 35.4 0.00 52.0 49.8 0.5 SSE | 166 2.6 366 12 1.9 48.9 4.8
12/28/21 - 0700 38.0 36.4 93 35.3 0.01 52.1 49.9 0.5 SSW | 204 2.6 387 -6 1.4 48.8 4.8
12/28/21 - 0600 38.5 37.4 93 36.1 0.00 52.7 50.0 0.2 SSE | 166 1.4 381 -5 1.1 47.5 4.8
12/28/21 - 0500 38.2 36.6 92 35.4 0.00 52.5 50.0 0.1 SSE | 151 1.6 356 -3 1.5 48.3 4.8
12/28/21 - 0400 37.7 36.6 92 34.9 0.00 52.6 50.1 0.2 SSE | 155 2.1 397 -7 1.4 50.8 4.8
12/28/21 - 0300 39.1 37.2 91 35.7 0.00 53.2 50.2 0.2 S | 189 1.5 409 -7 0.9 50.8 4.8
12/28/21 - 0200 40.5 38.5 90 36.7 0.00 53.3 50.2 0.3 SSE | 153 2.0 426 -7 0.0 53.0 4.8
12/28/21 - 0100 42.6 39.9 88 38.0 0.00 53.2 50.3 0.7 SSE | 166 2.4 400 -6 2.0 54.4 4.8
12/28/21 - 0000 45.4 41.3 85 38.8 0.00 54.1 50.4 0.3 SSE | 158 1.9 348 -6 1.1 55.3 4.8
12/27/21 - 2300 47.5 45.2 79 40.7 0.00 53.9 50.4 1.0 S | 178 3.0 287 -4 1.8 56.1 4.8
12/27/21 - 2200 48.5 47.2 77 40.9 0.00 53.1 50.5 1.6 SSW | 202 5.8 274 -3 4.9 56.7 4.8
12/27/21 - 2100 48.6 46.6 80 41.8 0.00 53.4 50.5 2.5 SSW | 197 7.3 273 -3 5.8 57.5 4.8
12/27/21 - 2000 48.1 46.3 82 42.2 0.00 52.9 50.5 1.2 S | 191 6.0 276 -5 4.2 60.4 4.8
12/27/21 - 1900 48.7 46.8 82 42.8 0.00 53.3 50.5 2.4 SW | 224 9.7 275 -5 6.6 62.3 4.8
12/27/21 - 1800 49.5 47.8 84 44.2 0.00 53.3 50.4 2.4 SSW | 211 7.9 301 -6 6.2 64.3 4.8
12/27/21 - 1700 50.3 49.3 86 45.6 0.01 53.2 50.4 3.2 SW | 230 8.5 305 13 6.9 65.2 4.8
12/27/21 - 1600 50.1 49.0 89 46.3 0.03 53.1 50.3 1.7 SSW | 206 6.2 420 51 4.2 64.9 4.8
12/27/21 - 1500 49.5 48.0 88 45.2 0.05 53.1 50.1 0.8 ESE | 106 3.5 578 59 2.3 63.6 4.8
12/27/21 - 1400 48.8 48.0 84 43.6 0.03 52.8 50.1 2.3 SE | 143 5.2 430 113 3.9 61.4 4.8
12/27/21 - 1300 50.9 48.7 72 40.9 0.00 52.5 50.0 1.5 SSW | 204 4.5 448 56 3.6 58.1 4.7
12/27/21 - 1200 52.3 50.7 59 37.7 0.00 52.1 50.0 3.0 SW | 220 7.8 273 126 6.3 56.7 4.7
12/27/21 - 1100 53.6 49.9 62 39.1 0.00 52.7 49.9 1.7 W | 261 7.8 270 286 5.8 52.8 4.7
12/27/21 - 1000 50.4 43.7 84 42.8 0.00 52.8 50.0 0.4 WSW | 252 3.1 270 266 2.6 50.0 4.7
12/27/21 - 0900 43.8 36.0 93 39.3 0.00 52.6 50.0 0.0 W | 280 1.4 296 92 1.2 46.5 4.7
12/27/21 - 0800 36.1 34.5 94 33.4 0.00 53.1 50.0 0.1 SE | 141 1.8 370 7 0.0 47.2 4.7
12/27/21 - 0700 35.7 34.2 93 33.2 0.00 53.3 50.1 0.0 SE | 135 1.1 380 -13 0.0 47.6 4.7
12/27/21 - 0600 36.3 34.4 93 33.6 0.00 53.7 50.2 0.0 SSE | 166 0.4 362 -9 0.0 48.2 4.7
12/27/21 - 0500 35.3 34.6 93 33.2 0.00 53.5 50.3 0.0 SSE | 155 0.7 377 -14 0.0 47.6 4.7
12/27/21 - 0400 35.8 34.9 93 33.4 0.00 53.6 50.5 0.1 S | 169 0.9 382 -16 0.0 47.9 4.7
12/27/21 - 0300 37.2 35.6 92 34.2 0.00 53.8 50.6 0.0 SSE | 155 0.7 381 -16 0.0 49.3 4.7
12/27/21 - 0200 37.2 36.1 92 34.5 0.00 54.2 50.8 0.4 SSE | 162 1.6 383 -18 1.3 51.1 4.7
12/27/21 - 0100 38.2 36.9 91 35.2 0.00 54.5 50.9 0.1 S | 188 1.2 402 -20 0.0 53.7 4.7
12/27/21 - 0000 39.0 37.6 90 35.8 0.00 54.1 51.0 0.3 SSE | 152 2.0 396 -24 0.0 54.9 4.7
12/26/21 - 2300 40.3 38.7 89 36.5 0.00 55.3 51.2 0.2 SSE | 159 1.8 379 -29 0.0 56.8 4.7
12/26/21 - 2200 40.9 39.9 86 36.7 0.00 54.9 51.2 0.4 SSE | 162 1.7 342 -42 1.0 58.2 4.7
12/26/21 - 2100 42.9 40.7 82 36.7 0.00 55.2 51.3 0.5 SSE | 161 2.3 302 -61 1.7 61.0 4.7
12/26/21 - 2000 45.8 42.4 72 36.1 0.00 54.7 51.5 0.5 S | 175 2.0 282 -68 1.6 64.7 4.7
12/26/21 - 1900 48.4 45.7 62 35.0 0.00 54.8 51.7 1.8 SSW | 196 4.4 271 -73 2.7 66.7 4.7
12/26/21 - 1800 51.4 48.0 57 34.7 0.00 54.7 51.9 2.1 SSW | 207 5.1 270 -76 3.5 70.7 4.7
12/26/21 - 1700 54.3 51.2 48 33.6 0.00 54.5 51.9 2.8 SSW | 208 6.1 269 -49 5.1 75.9 4.8
12/26/21 - 1600 55.8 53.3 47 34.6 0.00 54.7 52.0 3.2 S | 172 7.6 268 41 5.7 78.9 4.8
12/26/21 - 1500 58.5 55.1 49 37.0 0.00 54.2 52.0 3.8 SE | 143 9.0 267 192 5.8 79.0 4.8
12/26/21 - 1400 59.4 57.6 39 33.4 0.00 53.9 52.1 1.6 ENE | 66 6.5 266 270 5.0 77.1 4.8
12/26/21 - 1300 58.7 56.4 41 34.1 0.01 54.1 52.0 1.5 N | 353 6.1 267 323 4.7 74.0 4.8
12/26/21 - 1200 57.6 54.4 46 35.7 0.00 54.0 52.1 1.1 ENE | 76 4.4 268 336 3.3 68.9 4.8
12/26/21 - 1100 56.5 53.2 50 36.3 0.00 53.7 52.2 0.8 NNW | 348 4.1 268 296 4.7 61.6 4.8
12/26/21 - 1000 53.5 47.8 67 40.1 0.00 54.1 52.3 1.0 W | 261 3.6 269 217 3.3 56.1 4.8
12/26/21 - 0900 48.0 40.7 90 42.6 0.00 54.6 52.4 0.6 WSW | 255 3.2 282 145 2.5 53.2 4.8
12/26/21 - 0800 40.8 39.1 92 37.5 0.00 54.4 52.4 0.5 SSE | 152 2.5 423 -2 1.8 51.8 4.8
12/26/21 - 0700 40.9 39.1 90 37.3 0.00 54.5 52.6 0.8 SSE | 163 3.6 420 -28 2.1 53.6 4.8
12/26/21 - 0600 43.4 40.7 87 38.8 0.00 54.6 52.9 0.9 SSE | 167 2.7 381 -43 1.7 55.2 4.8
12/26/21 - 0500 47.1 43.2 80 39.3 0.00 54.6 53.3 1.1 SSW | 209 5.0 304 -67 4.0 56.6 4.8
12/26/21 - 0400 47.9 46.5 79 40.9 0.00 54.9 53.6 2.3 SW | 219 7.2 274 -24 5.1 59.6 4.8
12/26/21 - 0300 48.7 47.6 80 42.3 0.00 56.1 54.0 2.8 SW | 219 6.8 275 -7 5.1 59.8 4.8
12/26/21 - 0200 48.9 48.2 83 43.7 0.00 55.7 54.3 2.8 SW | 215 9.3 284 -3 7.7 60.6 4.8
12/26/21 - 0100 49.3 47.9 85 44.2 0.00 55.8 54.6 2.6 WSW | 237 8.5 337 -5 6.0 61.2 4.8
12/26/21 - 0000 51.0 49.0 88 46.6 0.14 54.9 53.9 3.9 SW | 233 9.9 365 -2 7.4 62.0 4.8
12/25/21 - 2300 50.8 47.9 89 46.1 0.16 55.2 51.4 3.8 SE | 140 12.5 484 -3 8.1 64.3 4.6
12/25/21 - 2200 48.0 47.2 87 44.0 0.07 55.2 50.8 1.8 ESE | 113 4.9 491 -4 3.7 65.3 4.5
12/25/21 - 2100 48.1 47.4 81 42.1 0.00 55.4 50.6 1.5 ESE | 120 5.1 446 -13 2.8 67.4 4.4
12/25/21 - 2000 47.9 46.4 82 41.8 0.00 55.7 50.7 0.7 SSE | 154 4.6 273 -29 4.5 69.6 4.4
12/25/21 - 1900 47.1 46.3 83 41.9 0.00 56.0 50.7 0.6 S | 175 2.3 274 -35 1.4 71.8 4.4
12/25/21 - 1800 48.8 46.2 80 41.6 0.00 56.2 50.8 0.8 SSE | 164 3.0 280 -63 1.9 74.9 4.4
12/25/21 - 1700 50.2 48.6 75 41.6 0.00 55.8 50.8 2.0 S | 172 7.0 273 -28 4.6 77.8 4.4
12/25/21 - 1600 52.0 49.9 67 40.4 0.00 55.6 50.8 3.7 SSW | 193 10.0 271 28 7.1 82.4 4.4
12/25/21 - 1500 52.8 50.3 67 40.9 0.00 55.7 50.8 5.2 SSW | 209 10.4 270 109 7.6 87.1 4.4
12/25/21 - 1400 56.6 52.7 56 39.7 0.00 55.0 50.8 4.9 S | 180 10.4 270 285 7.1 87.8 4.4
12/25/21 - 1300 56.4 54.2 62 42.0 0.00 54.7 50.7 5.1 S | 189 10.7 269 437 7.1 84.0 4.5
12/25/21 - 1200 55.3 51.5 74 45.3 0.00 54.6 50.7 4.6 S | 181 10.0 271 480 7.6 76.9 4.5
12/25/21 - 1100 52.1 50.8 84 46.8 0.01 54.5 50.8 2.7 SE | 134 8.8 307 162 4.8 66.1 4.4
12/25/21 - 1000 51.7 50.2 87 47.3 0.00 54.8 50.8 0.7 ENE | 66 3.1 275 64 1.1 63.0 4.4
12/25/21 - 0900 51.2 49.2 92 47.7 0.00 53.8 50.8 0.4 ENE | 63 2.9 281 72 1.7 61.1 4.4
12/25/21 - 0800 49.4 48.7 93 47.1 0.00 55.0 50.9 1.1 SSE | 167 4.3 335 15 2.5 60.2 4.4
12/25/21 - 0700 49.0 47.9 94 46.8 0.00 54.7 51.0 0.7 S | 174 5.1 357 -1 3.4 59.3 4.4
12/25/21 - 0600 48.5 47.9 94 46.5 0.00 54.6 51.0 0.0 N | 0 0.0 409 -4 0.0 59.3 4.4
12/25/21 - 0500 48.8 48.2 94 46.8 0.00 54.8 51.1 0.1 SE | 132 1.6 339 -3 0.3 59.5 4.4
12/25/21 - 0400 48.6 47.9 94 46.5 0.00 55.2 51.3 0.1 S | 174 1.4 352 -2 0.8 60.0 4.4
12/25/21 - 0300 48.2 47.2 94 46.0 0.00 54.6 51.3 0.5 SSE | 166 2.7 330 -1 2.4 60.6 4.4
12/25/21 - 0200 47.4 46.0 93 45.1 0.00 54.8 51.4 0.5 SW | 232 2.2 344 -2 0.0 60.4 4.4
12/25/21 - 0100 46.5 45.0 93 43.8 0.00 55.3 51.5 0.1 S | 180 1.3 363 -10 0.0 60.9 4.4
12/25/21 - 0000 46.9 45.2 93 44.3 0.00 55.4 51.7 0.0 S | 189 1.1 363 -5 0.0 61.0 4.4
12/24/21 - 2300 45.8 43.8 92 42.7 0.00 54.9 52.2 0.4 SSE | 167 1.8 373 -10 1.3 61.7 4.4
12/24/21 - 2200 45.8 44.5 91 42.8 0.00 55.4 52.3 0.2 S | 179 1.5 404 -22 0.0 65.5 4.4
12/24/21 - 2100 47.4 45.7 90 43.8 0.00 55.2 52.3 0.2 SSE | 167 1.0 396 -31 0.0 69.8 4.4
12/24/21 - 2000 50.0 47.2 88 45.2 0.00 56.0 52.3 0.5 S | 180 2.7 354 -50 1.9 72.2 4.4
12/24/21 - 1900 51.1 49.8 85 46.3 0.00 55.4 52.4 0.3 SSW | 193 1.6 289 -37 1.2 77.2 4.4
12/24/21 - 1800 52.4 50.2 83 46.1 0.00 55.4 52.5 0.5 S | 185 2.9 290 -54 2.0 80.6 4.4
12/24/21 - 1700 55.7 52.3 76 46.4 0.00 55.2 52.7 2.1 SSE | 160 6.8 275 -54 5.7 84.7 4.4
12/24/21 - 1600 57.0 55.4 70 46.5 0.00 55.2 52.9 3.4 SSE | 168 8.9 271 15 6.3 88.6 4.4
12/24/21 - 1500 59.5 56.9 66 46.9 0.01 54.9 53.1 4.4 SSE | 164 8.6 270 215 6.0 88.7 4.4
12/24/21 - 1400 60.1 56.7 59 44.6 0.00 55.5 53.2 4.4 SSW | 207 10.0 270 310 8.1 84.9 4.4
12/24/21 - 1300 58.1 56.2 63 44.7 0.00 55.4 53.4 4.4 SW | 224 8.6 271 208 6.9 79.4 4.4
12/24/21 - 1200 57.2 53.3 76 47.6 0.00 54.5 53.6 4.8 SW | 222 10.6 271 279 8.1 76.6 4.4
12/24/21 - 1100 55.6 52.5 84 49.4 0.00 54.6 53.7 3.7 SW | 221 8.7 273 229 7.3 73.6 4.4
12/24/21 - 1000 53.5 52.1 89 49.6 0.04 55.2 54.1 1.4 SW | 224 5.3 374 98 3.5 67.5 4.4
12/24/21 - 0900 54.6 51.9 92 51.0 0.01 55.1 54.2 1.2 SE | 141 4.1 465 136 3.0 64.2 4.4
12/24/21 - 0800 51.9 50.4 94 49.2 0.00 54.5 54.6 0.5 S | 186 3.1 417 23 2.2 62.5 4.4
12/24/21 - 0700 51.6 51.0 94 49.7 0.12 54.6 54.1 1.6 S | 191 8.6 478 -1 6.0 62.7 4.4
12/24/21 - 0600 51.7 50.7 94 49.6 0.01 54.5 53.8 0.7 SSE | 149 2.7 464 -2 2.5 63.8 4.3
12/24/21 - 0500 51.5 50.6 94 49.4 0.00 55.0 54.1 0.5 SSW | 203 2.7 424 -1 3.3 64.3 4.3
12/24/21 - 0400 51.2 50.7 94 49.2 0.03 54.6 54.4 0.0 ESE | 111 0.9 512 -1 0.0 63.7 4.2
12/24/21 - 0300 51.2 50.7 94 49.3 0.02 55.0 54.6 0.0 SE | 127 0.7 429 -1 0.0 64.4 4.2
12/24/21 - 0200 51.2 50.7 94 49.2 0.03 55.0 54.9 0.3 SSW | 211 2.0 509 -1 1.6 63.6 4.2
12/24/21 - 0100 51.1 50.6 94 49.1 0.03 54.9 55.4 0.1 SSW | 208 1.1 490 -1 0.0 63.3 4.2
12/24/21 - 0000 50.9 50.6 94 49.1 0.01 54.4 56.3 0.4 NNE | 21 3.6 423 -1 1.0 64.5 4.1
12/23/21 - 2300 51.0 50.5 94 49.0 0.01 54.8 57.7 0.8 NE | 43 2.4 410 -1 1.3 64.9 4.1
12/23/21 - 2200 51.0 50.6 93 48.9 0.19 55.1 59.0 0.6 NE | 41 4.1 469 -1 2.2 64.4 4.1
12/23/21 - 2100 51.6 50.7 93 49.2 0.32 54.8 59.8 1.3 ENE | 68 5.8 530 -1 3.5 64.3 3.9
12/23/21 - 2000 51.4 50.3 92 48.8 0.22 55.1 58.7 0.9 NE | 45 5.1 572 -1 3.2 63.8 3.7
12/23/21 - 1900 50.4 49.4 92 47.6 0.07 55.4 57.8 2.2 E | 85 9.8 514 -2 4.8 64.4 3.7
12/23/21 - 1800 51.4 49.8 92 48.5 0.27 55.1 57.3 2.9 ENE | 75 11.4 524 -2 7.2 66.0 3.7
12/23/21 - 1700 51.4 50.9 92 49.1 0.05 54.5 54.9 2.6 ENE | 74 7.6 525 -1 5.4 66.8 3.7
12/23/21 - 1600 52.0 51.0 93 49.7 0.02 55.0 55.3 2.0 ENE | 63 6.9 477 4 3.3 67.2 3.7
12/23/21 - 1500 52.0 51.4 94 50.0 0.08 55.3 55.8 2.3 ENE | 73 7.7 424 16 5.2 66.6 3.7
12/23/21 - 1400 51.7 51.0 94 49.6 0.08 55.3 55.8 1.2 ENE | 58 4.1 584 24 2.1 66.0 3.7
12/23/21 - 1300 51.7 50.7 93 49.4 0.18 55.2 55.0 0.5 NE | 52 2.5 496 27 0.9 65.5 3.7
12/23/21 - 1200 51.2 50.6 93 49.0 0.12 55.3 51.4 1.1 ENE | 72 4.5 558 29 2.0 64.8 3.7
12/23/21 - 1100 51.0 50.6 93 48.9 0.16 55.8 49.2 1.0 NE | 55 3.6 548 33 3.3 64.4 3.7
12/23/21 - 1000 51.0 49.6 93 48.4 0.09 56.5 48.3 1.0 ENE | 72 3.4 555 28 2.4 63.9 3.7
12/23/21 - 0900 50.4 49.6 93 48.1 0.02 56.9 48.1 1.5 ENE | 71 5.7 527 20 2.4 63.7 3.7
12/23/21 - 0800 50.5 50.0 93 48.2 0.04 56.0 48.0 0.7 NE | 40 3.7 450 6 1.6 62.2 3.7
12/23/21 - 0700 50.3 49.8 92 47.8 0.02 55.2 47.9 0.2 NE | 34 2.1 461 -2 0.8 63.0 3.7
12/23/21 - 0600 50.4 49.9 92 47.9 0.03 55.6 47.9 0.1 N | 9 1.6 449 -2 1.3 63.1 3.7
12/23/21 - 0500 50.7 50.1 91 47.8 0.03 55.6 47.8 0.1 WNW | 290 1.5 453 -3 1.6 63.4 3.7
12/23/21 - 0400 50.8 50.3 90 47.8 0.08 55.3 47.8 0.6 W | 263 2.8 465 -3 1.8 64.1 3.7
12/23/21 - 0300 51.3 50.4 89 47.9 0.02 57.2 47.7 0.6 WNW | 289 2.8 455 -3 2.3 64.4 3.7
12/23/21 - 0200 52.4 51.1 85 47.2 0.02 54.7 47.7 2.4 WSW | 244 6.1 463 -4 4.6 64.5 3.7
12/23/21 - 0100 54.7 52.2 68 42.6 0.00 54.5 47.6 2.4 WSW | 241 5.1 277 -8 4.1 65.2 3.7
12/23/21 - 0000 55.7 54.5 53 38.3 0.00 55.0 47.5 1.5 W | 265 6.1 269 -6 4.8 66.4 3.7
12/22/21 - 2300 55.9 55.0 49 36.8 0.00 54.7 47.6 0.9 SSW | 205 3.3 269 -6 2.0 67.0 3.7
12/22/21 - 2200 57.6 55.5 43 34.5 0.00 54.9 47.5 0.1 SSE | 160 1.8 268 -6 1.6 67.9 3.7
12/22/21 - 2100 58.2 57.4 40 33.5 0.00 55.4 47.5 2.3 SW | 230 5.8 267 -9 4.0 70.1 3.7
12/22/21 - 2000 58.4 55.5 48 37.3 0.00 54.6 47.5 1.4 SW | 222 5.7 268 -13 3.9 75.0 3.7
12/22/21 - 1900 57.0 55.6 54 40.0 0.00 55.3 47.5 0.5 S | 185 1.9 269 -20 1.2 78.4 3.7
12/22/21 - 1800 58.3 56.8 51 39.5 0.00 54.9 47.5 0.2 SSE | 157 1.6 269 -15 0.5 83.3 3.7
12/22/21 - 1700 61.4 58.1 47 39.4 0.00 54.7 47.5 0.3 S | 176 1.4 268 -15 0.0 86.3 3.7
12/22/21 - 1600 64.4 61.3 35 34.6 0.00 54.1 47.4 0.1 SE | 138 1.5 268 6 0.4 87.9 3.7
12/22/21 - 1500 65.2 63.8 29 31.2 0.00 54.2 47.4 0.2 ESE | 102 1.4 266 59 1.2 87.7 3.7
12/22/21 - 1400 64.1 62.7 29 30.3 0.00 53.7 47.3 0.2 NE | 43 1.6 265 72 0.6 86.2 3.7
12/22/21 - 1300 63.5 62.5 28 29.4 0.00 54.0 47.2 0.5 N | 9 3.2 266 98 2.4 83.8 3.7
12/22/21 - 1200 62.9 59.4 30 29.9 0.00 53.8 47.2 0.2 NNW | 339 1.8 266 142 1.6 81.1 3.7
12/22/21 - 1100 59.9 57.4 37 32.5 0.00 53.3 47.1 0.4 N | 355 2.2 266 134 1.3 69.4 3.7
12/22/21 - 1000 57.4 54.4 47 35.8 0.00 53.0 47.2 0.2 W | 279 2.7 267 112 2.1 60.0 3.7
12/22/21 - 0900 54.8 45.6 60 37.0 0.00 53.2 47.1 0.2 NW | 305 2.0 267 112 2.4 52.1 3.7
12/22/21 - 0800 45.6 41.6 73 35.3 0.00 54.2 47.1 0.2 SE | 136 1.3 270 1 0.9 49.9 3.7
12/22/21 - 0700 42.8 41.3 75 34.6 0.00 54.4 47.2 0.3 S | 171 1.5 272 -39 1.2 49.4 3.7
12/22/21 - 0600 43.0 42.2 76 35.4 0.00 55.2 47.2 0.2 S | 187 1.7 271 -34 1.2 50.1 3.7
12/22/21 - 0500 43.2 42.4 75 35.4 0.00 54.6 47.3 0.1 SSE | 162 0.8 271 -30 0.0 51.2 3.7
12/22/21 - 0400 42.9 42.3 74 35.0 0.00 54.4 47.3 0.1 SSE | 154 1.2 271 -27 0.8 51.9 3.7
12/22/21 - 0300 44.0 42.5 72 34.8 0.00 54.8 47.3 0.3 SSE | 156 1.3 271 -42 0.9 53.1 3.7
12/22/21 - 0200 44.0 43.1 71 35.0 0.00 54.8 47.4 0.3 SSE | 156 1.7 270 -33 1.2 53.1 3.7
12/22/21 - 0100 43.8 43.1 70 34.4 0.00 55.0 47.4 0.1 S | 186 1.0 270 -32 0.0 54.2 3.7
12/22/21 - 0000 44.6 43.2 67 33.8 0.00 54.6 47.4 0.1 SSE | 163 1.1 270 -41 0.6 55.7 3.7
12/21/21 - 2300 45.3 44.5 62 32.7 0.00 54.9 47.5 0.1 SSE | 159 0.8 269 -44 0.0 59.1 3.7
12/21/21 - 2200 46.2 45.0 59 32.0 0.00 55.0 47.5 0.2 S | 172 1.0 269 -51 0.0 63.0 3.7
12/21/21 - 2100 48.1 46.0 54 31.3 0.00 55.1 47.6 0.2 SSE | 166 1.3 269 -58 0.9 68.4 3.7
12/21/21 - 2000 50.6 48.0 48 30.6 0.00 55.1 47.6 0.5 SSE | 161 1.7 268 -62 1.3 76.0 3.7
12/21/21 - 1900 53.7 50.4 45 31.2 0.00 54.9 47.7 0.5 SSE | 165 1.8 267 -62 1.2 83.1 3.7
12/21/21 - 1800 58.6 53.1 39 31.2 0.00 54.7 47.6 0.7 SSE | 158 2.2 267 -63 1.4 87.6 3.7
12/21/21 - 1700 67.2 58.6 25 27.1 0.00 54.4 47.7 0.6 E | 98 3.0 266 -53 1.9 95.4 3.7
12/21/21 - 1600 72.6 67.2 17 23.3 0.00 54.3 47.6 1.0 SW | 231 3.6 264 43 3.4 106.8 3.7
12/21/21 - 1500 72.0 69.1 16 22.0 0.00 54.0 47.4 0.8 NW | 314 3.2 263 147 3.1 111.1 3.7
12/21/21 - 1400 70.9 67.4 18 22.6 0.00 53.9 47.3 0.9 NE | 43 2.9 262 174 2.4 111.8 3.7
12/21/21 - 1300 69.1 65.4 21 26.3 0.00 53.6 47.3 0.8 NE | 52 3.8 264 221 2.0 107.2 3.7
12/21/21 - 1200 65.9 63.2 25 28.4 0.00 53.4 47.1 0.8 NE | 45 3.3 264 229 2.1 93.6 3.7
12/21/21 - 1100 63.6 55.3 40 34.3 0.00 53.5 47.2 0.5 ENE | 63 3.3 266 178 1.8 68.8 3.7
12/21/21 - 1000 55.5 50.8 54 37.0 0.00 54.0 47.1 0.2 NE | 40 1.6 268 78 0.8 56.5 3.7
12/21/21 - 0900 50.9 46.4 61 35.4 0.00 53.4 47.2 0.1 NE | 34 1.0 269 38 0.0 53.4 3.7
12/21/21 - 0800 46.5 45.8 62 33.7 0.00 53.0 47.1 0.1 SSE | 160 1.2 269 -10 0.6 49.6 3.7
12/21/21 - 0700 46.2 45.1 62 33.5 0.00 53.7 47.2 0.3 SSE | 153 1.9 269 -17 0.9 50.0 3.7
12/21/21 - 0600 45.4 44.9 64 33.5 0.00 53.7 47.1 0.2 SE | 144 1.9 270 -16 0.0 50.2 3.7
12/21/21 - 0500 45.3 44.7 64 33.5 0.00 53.5 47.2 0.2 SE | 135 1.5 269 -21 1.1 50.7 3.7
12/21/21 - 0400 45.3 44.8 63 33.1 0.00 53.2 47.3 0.2 SE | 144 1.9 269 -24 0.9 51.0 3.7
12/21/21 - 0300 45.7 44.9 59 32.0 0.00 53.6 47.3 0.1 SSE | 153 0.9 269 -22 1.4 51.8 3.7
12/21/21 - 0200 45.6 44.9 60 31.9 0.00 53.6 47.3 0.1 SSE | 164 1.9 269 -27 0.7 52.7 3.7
12/21/21 - 0100 45.9 45.4 57 31.4 0.00 53.8 47.3 0.2 SSE | 162 1.0 269 -24 0.0 53.9 3.7
12/21/21 - 0000 47.1 45.7 55 31.2 0.00 54.2 47.3 0.3 SSE | 160 1.8 269 -36 0.9 56.0 3.7
12/20/21 - 2300 48.8 46.9 54 32.0 0.00 54.3 47.4 0.4 SSE | 166 2.0 269 -33 1.2 59.0 3.7
12/20/21 - 2200 49.3 48.5 52 32.0 0.00 54.9 47.4 0.3 S | 188 2.1 268 -27 1.6 61.3 3.7
12/20/21 - 2100 51.9 48.8 46 30.3 0.00 56.0 47.3 0.6 S | 170 2.9 268 -37 1.6 64.1 3.7
12/20/21 - 2000 54.8 51.7 38 28.2 0.00 55.8 47.4 0.7 S | 182 3.1 267 -33 1.7 66.9 3.7
12/20/21 - 1900 53.6 52.0 44 31.5 0.00 55.0 47.4 0.7 S | 170 2.6 267 -35 1.7 70.3 3.7
12/20/21 - 1800 55.3 52.5 44 32.4 0.00 52.9 47.4 0.6 SSE | 152 2.0 267 -40 1.3 74.2 3.7
12/20/21 - 1700 60.8 55.3 38 32.7 0.00 53.6 47.4 0.4 SSE | 160 2.1 266 -42 1.9 76.3 3.7
12/20/21 - 1600 67.1 60.8 25 27.1 0.00 53.1 47.4 0.6 S | 169 2.8 266 -4 1.9 77.1 3.7
12/20/21 - 1500 67.4 65.2 18 21.6 0.00 52.7 47.2 0.6 ESE | 104 2.9 264 65 1.2 78.0 3.7
12/20/21 - 1400 69.3 65.2 16 19.3 0.00 54.0 47.1 1.4 SSE | 168 3.7 263 243 3.9 76.3 3.7
12/20/21 - 1300 65.3 61.8 21 23.0 0.00 53.6 47.1 1.6 E | 91 6.3 263 250 2.8 69.2 3.7
12/20/21 - 1200 62.9 60.7 27 27.4 0.00 52.3 47.0 1.4 ENE | 64 4.3 265 235 2.1 56.5 3.7
12/20/21 - 1100 61.1 55.0 36 30.8 0.00 52.0 46.9 0.9 NE | 34 3.7 266 301 1.8 43.8 3.7
12/20/21 - 1000 55.0 44.6 59 36.4 0.00 52.3 47.0 0.2 NNE | 27 1.3 267 261 1.8 42.8 3.7
12/20/21 - 0900 44.9 36.3 91 38.5 0.00 52.5 47.0 0.3 NNE | 32 1.3 278 130 0.0 40.6 3.7
12/20/21 - 0800 36.2 32.6 93 32.2 0.00 53.0 47.0 0.0 SSE | 155 0.7 455 22 0.0 38.6 3.7
12/20/21 - 0700 33.5 32.3 93 31.1 0.00 53.3 47.0 0.0 SSE | 150 1.0 283 -8 0.0 38.8 3.7
12/20/21 - 0600 34.4 32.8 93 31.8 0.00 53.1 47.1 0.0 SSE | 160 0.5 282 -11 0.0 38.8 3.7
12/20/21 - 0500 34.8 33.3 92 31.9 0.00 53.2 47.1 0.0 S | 182 0.5 281 -13 0.0 39.3 3.7
12/20/21 - 0400 35.6 34.2 92 32.7 0.00 53.4 47.3 0.0 SSE | 149 0.6 366 -14 0.0 39.4 3.7
12/20/21 - 0300 35.9 35.0 91 33.0 0.00 53.5 47.3 0.2 SSE | 163 0.9 367 -15 0.0 39.3 3.7
12/20/21 - 0200 37.0 35.6 90 33.6 0.00 53.6 47.4 0.1 SSE | 159 0.9 382 -17 0.0 40.1 3.7
12/20/21 - 0100 37.9 36.8 89 34.2 0.00 53.1 47.4 0.1 S | 175 1.0 376 -19 0.0 42.3 3.7
12/20/21 - 0000 39.4 37.9 87 35.1 0.00 53.7 47.5 0.2 SSE | 155 1.1 355 -23 0.0 44.6 3.7
12/19/21 - 2300 40.6 39.3 85 35.6 0.00 53.9 47.5 0.2 SSE | 157 1.0 332 -30 0.0 47.4 3.7
12/19/21 - 2200 41.9 40.4 82 36.1 0.00 54.9 47.6 0.3 SSE | 153 1.3 306 -43 0.0 50.5 3.7
12/19/21 - 2100 43.7 41.5 79 36.5 0.00 55.6 47.7 0.3 SSE | 157 1.2 283 -56 0.0 53.9 3.7
12/19/21 - 2000 45.6 43.5 75 37.0 0.00 54.0 47.7 0.3 SSE | 157 1.2 275 -64 0.0 57.5 3.7
12/19/21 - 1900 48.2 45.2 69 36.7 0.00 53.1 47.8 0.6 SSE | 153 1.6 272 -69 1.0 62.7 3.7
12/19/21 - 1800 53.7 48.3 60 37.3 0.00 53.0 47.8 0.4 S | 174 1.7 269 -74 1.4 69.0 3.7
12/19/21 - 1700 64.0 53.7 38 33.6 0.00 53.6 47.8 0.7 SE | 133 3.2 267 -71 1.8 73.8 3.7
12/19/21 - 1600 67.7 63.9 22 25.7 0.00 54.9 47.7 1.5 ENE | 66 4.0 264 19 2.9 75.7 3.7
12/19/21 - 1500 69.4 67.2 16 20.8 0.00 54.0 47.6 1.8 ENE | 71 5.1 263 142 4.4 77.2 3.7
12/19/21 - 1400 70.5 68.2 17 22.8 0.00 54.2 47.5 1.5 NE | 46 5.6 263 239 3.2 75.6 3.7
12/19/21 - 1300 69.8 66.2 17 21.1 0.00 53.7 47.3 1.1 NE | 54 3.7 263 300 2.4 69.2 3.7
12/19/21 - 1200 66.4 62.5 21 24.2 0.00 53.8 47.3 1.0 NE | 39 3.2 264 319 2.0 60.0 3.7
12/19/21 - 1100 63.0 57.5 29 27.2 0.00 53.8 47.2 1.0 NNE | 33 2.7 264 286 1.6 44.5 3.7
12/19/21 - 1000 58.8 51.2 38 29.2 0.00 53.8 47.1 0.5 NNE | 29 2.0 265 211 1.8 43.6 3.7
12/19/21 - 0900 51.1 36.1 56 29.8 0.00 52.6 47.2 0.1 NE | 47 1.1 267 106 0.9 40.9 3.7
12/19/21 - 0800 36.0 32.2 77 27.0 0.00 53.7 47.3 0.2 SSE | 149 1.1 272 -30 0.0 37.6 3.7
12/19/21 - 0700 33.1 32.3 77 26.2 0.00 53.4 47.3 0.2 SSE | 156 0.9 275 -54 0.0 37.7 3.7
12/19/21 - 0600 33.4 32.3 77 26.4 0.00 53.4 47.3 0.0 SSE | 155 0.8 275 -55 0.0 38.2 3.7
12/19/21 - 0500 34.3 33.3 74 26.4 0.00 53.1 47.4 0.1 SSE | 162 1.3 273 -56 0.0 38.2 3.7
12/19/21 - 0400 35.2 33.9 72 26.5 0.00 53.8 47.5 0.1 SSE | 152 1.0 272 -57 0.0 38.4 3.7
12/19/21 - 0300 35.7 34.7 72 27.0 0.00 54.0 47.6 0.1 SSE | 156 1.1 272 -58 0.0 39.3 3.7
12/19/21 - 0200 37.1 35.5 68 26.9 0.00 54.0 47.7 0.2 SSE | 158 1.1 272 -59 0.0 40.8 3.7
12/19/21 - 0100 38.4 36.5 68 27.8 0.00 54.2 47.7 0.2 SSE | 157 1.1 271 -60 0.0 42.3 3.7
12/19/21 - 0000 39.4 38.0 65 28.1 0.00 54.4 47.8 0.2 SSE | 163 1.1 270 -61 0.0 45.0 3.7
12/18/21 - 2300 40.9 39.0 62 28.2 0.00 54.4 47.9 0.2 SSE | 162 1.4 270 -61 0.9 47.1 3.7
12/18/21 - 2200 42.4 40.4 60 28.6 0.00 55.6 48.0 0.1 S | 169 1.0 269 -63 0.7 49.8 3.7
12/18/21 - 2100 44.7 42.1 58 29.3 0.00 54.5 48.1 0.5 SSE | 159 1.6 269 -65 0.8 53.8 3.7
12/18/21 - 2000 47.1 44.4 50 28.3 0.00 54.5 48.1 0.6 SSE | 158 3.4 268 -67 1.1 57.6 3.7
12/18/21 - 1900 49.3 46.3 47 28.7 0.00 54.3 48.1 1.0 SSE | 156 2.9 268 -71 2.0 62.2 3.7
12/18/21 - 1800 54.6 48.5 42 28.9 0.00 54.3 48.2 1.0 SSE | 160 2.8 267 -77 2.0 67.4 3.7
12/18/21 - 1700 65.8 54.6 25 24.3 0.00 52.6 48.2 0.7 ESE | 120 4.2 266 -75 1.8 72.7 3.7
12/18/21 - 1600 68.3 65.7 17 20.3 0.00 53.5 48.1 1.7 NNE | 20 6.5 263 19 2.6 76.1 3.7
12/18/21 - 1500 70.0 67.5 15 19.6 0.00 52.1 47.9 2.3 NNE | 16 6.7 263 145 2.8 77.3 3.7
12/18/21 - 1400 73.0 68.9 12 16.1 0.00 53.1 47.8 1.5 N | 11 7.2 262 239 3.8 77.2 3.7
12/18/21 - 1300 70.4 66.2 15 18.8 0.00 53.2 47.7 2.0 WSW | 258 6.7 263 304 5.2 72.5 3.7
12/18/21 - 1200 67.7 65.8 16 19.2 0.00 53.0 47.5 1.2 SW | 217 3.6 263 320 4.1 66.8 3.7
12/18/21 - 1100 66.0 61.8 18 19.8 0.00 52.8 47.5 0.8 NE | 36 3.5 263 283 3.9 56.4 3.7
12/18/21 - 1000 62.0 58.0 21 20.1 0.00 53.1 47.4 1.4 S | 174 4.1 264 206 2.9 46.2 3.7
12/18/21 - 0900 58.0 42.5 40 26.9 0.00 53.4 47.5 0.6 SSE | 152 2.3 265 102 1.9 40.4 3.7
12/18/21 - 0800 42.4 38.1 55 24.7 0.00 52.2 47.5 0.7 SSE | 157 2.6 269 -39 2.3 38.0 3.7
12/18/21 - 0700 39.6 37.6 56 24.3 0.00 52.0 47.6 1.0 SSE | 151 3.0 270 -64 2.9 40.2 3.7
12/18/21 - 0600 41.2 38.9 52 24.0 0.00 54.7 47.7 0.9 SSE | 150 2.7 269 -66 2.5 41.6 3.7
12/18/21 - 0500 44.7 40.3 45 22.9 0.00 53.8 47.8 1.4 SSE | 157 4.2 268 -69 3.1 41.9 3.7
12/18/21 - 0400 48.9 44.1 34 20.2 0.00 53.9 47.9 1.1 SSE | 155 4.8 267 -71 3.8 43.7 3.7
12/18/21 - 0300 52.6 45.5 32 20.0 0.00 55.8 47.9 2.1 SSW | 196 4.8 267 -72 4.1 45.3 3.7
12/18/21 - 0200 53.3 46.5 31 20.0 0.00 55.9 47.9 1.4 SW | 229 3.9 267 -74 3.9 46.2 3.7
12/18/21 - 0100 54.6 49.4 28 19.8 0.00 55.6 48.0 2.1 S | 170 6.3 267 -76 4.2 46.6 3.7
12/18/21 - 0000 54.9 51.8 26 19.5 0.00 54.2 48.1 1.7 S | 170 6.5 266 -79 4.5 48.6 3.7
12/17/21 - 2300 56.0 53.5 25 20.3 0.00 54.3 48.2 2.7 NNE | 14 10.5 266 -82 4.1 49.2 3.7
12/17/21 - 2200 55.0 53.6 28 21.8 0.00 54.5 48.2 2.0 NNE | 12 8.6 266 -79 3.2 50.4 3.7
12/17/21 - 2100 54.4 50.4 30 22.5 0.00 54.5 48.2 2.0 W | 263 5.8 266 -78 5.1 52.0 3.7
12/17/21 - 2000 55.7 51.4 30 23.2 0.00 54.3 48.3 2.2 SW | 224 5.2 267 -80 4.4 55.0 3.7
12/17/21 - 1900 56.6 55.4 28 23.3 0.00 54.4 48.3 1.3 NW | 323 5.7 266 -85 4.8 58.6 3.7
12/17/21 - 1800 58.4 56.4 27 23.4 0.00 54.0 48.3 1.4 NNW | 331 8.7 266 -87 5.4 63.4 3.7
12/17/21 - 1700 64.0 58.3 23 22.8 0.00 53.8 48.3 1.2 NNW | 340 9.2 266 -77 5.0 69.4 3.7
12/17/21 - 1600 65.0 62.8 21 23.2 0.00 54.2 48.3 2.0 N | 350 10.0 264 25 4.1 74.4 3.7
12/17/21 - 1500 65.7 63.7 22 24.3 0.00 54.3 48.2 2.6 N | 360 10.1 264 154 4.4 75.4 3.7
12/17/21 - 1400 65.6 63.4 23 25.5 0.00 54.0 48.1 2.7 N | 3 9.4 264 253 4.2 75.0 3.7
12/17/21 - 1300 64.4 62.4 24 25.5 0.00 53.9 48.0 3.8 N | 6 10.7 265 318 4.6 69.8 3.7
12/17/21 - 1200 62.9 60.8 25 25.2 0.00 53.7 47.9 3.6 N | 9 10.6 266 335 4.6 64.2 3.7
12/17/21 - 1100 61.1 58.1 28 26.4 0.01 53.6 47.9 3.4 N | 11 11.1 266 300 4.7 57.9 3.7
12/17/21 - 1000 58.3 55.6 35 29.5 0.00 52.3 47.8 2.8 NNE | 15 10.0 267 297 5.0 49.1 3.7
12/17/21 - 0900 56.0 45.2 49 33.1 0.00 53.5 47.9 1.3 NE | 45 6.2 268 169 5.6 42.9 3.7
12/17/21 - 0800 45.0 39.4 92 38.8 0.00 53.8 48.0 1.2 SSE | 152 3.9 300 18 2.4 42.4 3.7
12/17/21 - 0700 40.5 38.8 94 38.0 0.00 54.0 48.0 0.9 SE | 144 3.3 393 -5 1.7 43.8 3.7
12/17/21 - 0600 40.4 38.9 94 37.9 0.00 54.0 48.1 0.4 SSE | 158 2.1 398 -6 1.7 44.7 3.7
12/17/21 - 0500 41.2 39.2 94 38.4 0.00 54.1 48.1 0.4 SSE | 159 2.7 394 -6 2.2 47.0 3.7
12/17/21 - 0400 43.1 40.7 93 40.2 0.00 54.4 48.2 0.7 SSE | 153 2.7 378 -6 2.4 49.0 3.7
12/17/21 - 0300 44.8 42.4 94 41.8 0.00 54.2 48.2 0.9 SE | 136 4.8 390 -6 2.4 51.4 3.7
12/17/21 - 0200 46.6 43.2 94 42.8 0.01 54.1 48.2 0.5 SSE | 148 3.6 393 -6 2.8 53.3 3.7
12/17/21 - 0100 48.2 46.4 94 45.7 0.00 54.2 48.2 1.3 SW | 228 6.4 372 -4 4.4 54.8 3.7
12/17/21 - 0000 49.0 48.0 94 46.8 0.00 54.2 48.2 0.4 NNE | 22 2.7 346 -1 1.1 55.4 3.7
12/16/21 - 2300 49.0 48.6 94 47.1 0.00 54.1 48.1 0.3 E | 94 1.9 358 -1 0.1 55.2 3.7
12/16/21 - 2200 49.3 48.7 94 47.2 0.00 54.0 48.0 0.1 W | 260 1.4 368 -2 0.6 55.6 3.7
12/16/21 - 2100 49.2 48.7 94 47.1 0.01 54.0 47.9 0.7 SSE | 149 3.2 389 -2 2.4 56.4 3.7
12/16/21 - 2000 49.0 48.6 93 47.0 0.00 54.0 47.9 0.4 NNE | 14 2.2 528 -1 0.4 57.1 3.7
12/16/21 - 1900 48.8 48.2 93 46.6 0.01 53.8 47.8 0.7 NNE | 16 3.8 450 -2 1.0 57.7 3.7
12/16/21 - 1800 48.9 48.3 93 46.6 0.04 53.8 47.7 0.7 NNE | 24 2.6 490 -2 0.8 58.0 3.7
12/16/21 - 1700 49.4 48.6 92 46.7 0.02 53.5 47.6 0.9 NNE | 23 3.1 465 1 0.8 58.4 3.7
12/16/21 - 1600 49.5 48.8 90 46.5 0.04 53.5 47.5 0.7 NE | 46 2.9 458 21 1.4 58.7 3.7
12/16/21 - 1500 53.7 49.0 79 44.8 0.04 53.3 47.4 1.7 E | 84 5.7 498 36 2.4 58.3 3.7
12/16/21 - 1400 54.2 53.5 69 44.0 0.00 53.2 47.3 1.0 ENE | 74 3.2 271 37 2.2 57.6 3.7
12/16/21 - 1300 54.4 53.0 69 43.9 0.00 53.2 47.3 1.0 NE | 41 4.1 271 96 2.1 56.4 3.7
12/16/21 - 1200 53.4 51.8 69 42.9 0.00 53.1 47.3 2.8 W | 272 8.7 271 114 7.1 53.2 3.7
12/16/21 - 1100 54.2 51.0 57 38.1 0.00 52.9 47.3 2.0 SW | 218 6.7 270 229 5.7 45.3 3.7
12/16/21 - 1000 51.3 46.4 63 36.3 0.00 53.3 47.2 0.9 N | 11 3.5 270 184 2.4 40.1 3.7
12/16/21 - 0900 47.0 36.8 84 37.5 0.00 53.5 47.2 0.2 ESE | 122 2.1 283 131 1.6 37.5 3.7
12/16/21 - 0800 36.8 33.7 92 32.4 0.00 53.5 47.3 0.3 SE | 146 1.8 350 24 1.3 36.1 3.7
12/16/21 - 0700 33.9 32.0 92 30.8 0.00 53.7 47.4 0.8 S | 170 2.3 286 -7 1.9 36.1 3.7
12/16/21 - 0600 33.0 32.3 91 30.4 0.00 53.8 47.4 0.1 S | 176 1.1 281 -12 0.0 36.0 3.7
12/16/21 - 0500 33.5 32.5 91 30.6 0.00 53.9 47.5 0.0 SSE | 157 1.0 372 -15 0.0 35.6 3.7
12/16/21 - 0400 34.3 33.2 90 31.4 0.00 54.2 47.6 0.0 N | 0 0.0 384 -17 0.0 36.7 3.7
12/16/21 - 0300 34.4 33.3 90 31.3 0.00 54.3 47.7 0.2 SSE | 159 1.1 387 -19 1.2 36.7